Morgenstond III — PBAX — position and weather

sailwx.info

Track history (hours):
 
Tides and Currents Weather Stations Pressure Air Temp Water Temp Dewpoint Dewpoint Depression Visibility Wind Speed Wind Dir Waves Ship Positions

Morgenstond III

Last reported at 2018-Apr-23 06:15 UTC. Time now 2018-Apr-23 07:09 UTC.
Position N 53°21' W 006°13'.

Length 110 m; draft 3.9 m.

Type: Ship. MMSI: 244562000.

Date/timePositionNaut miles runAvg speedWind from/ knotsBaromVisibWave heightAir tempDewpointWater temp
2018-Apr-23 06:15N 53°21' W 006°13'0 0.0
2018-Apr-23 05:54N 53°21' W 006°13'0 0.0
2018-Apr-23 04:21N 53°21' W 006°13'0 0.0
2018-Apr-23 02:42N 53°21' W 006°13'0 0.0
2018-Apr-23 02:06N 53°21' W 006°13'0 0.0
2018-Apr-23 01:39N 53°21' W 006°13'0 0.0
2018-Apr-23 01:15N 53°21' W 006°13'0 0.0
2018-Apr-23 01:00N 53°21' W 006°13'0 0.0
2018-Apr-22 20:48N 53°21' W 006°13'0 0.0
2018-Apr-22 20:18N 53°21' W 006°13'0 0.0
2018-Apr-22 19:51N 53°21' W 006°13'0 0.0
2018-Apr-22 19:15N 53°21' W 006°13'0 0.0
2018-Apr-22 17:15N 53°21' W 006°13'0 0.0
2018-Apr-22 16:42N 53°21' W 006°13'0 0.0
2018-Apr-22 16:09N 53°21' W 006°13'0 0.0
2018-Apr-22 15:39N 53°21' W 006°13'0 0.0
2018-Apr-22 13:06N 53°21' W 006°13'0 0.0
2018-Apr-22 10:24N 53°21' W 006°13'0 0.0
2018-Apr-22 09:54N 53°21' W 006°13'0 0.0
2018-Apr-22 05:15N 53°21' W 006°13'0 0.0
2018-Apr-22 03:00N 53°21' W 006°13'1 2.2
2018-Apr-22 02:30N 53°21' W 006°11'6 9.6
2018-Apr-22 01:54N 53°21' W 006°02'4 9.1
2018-Apr-22 01:26N 53°24' W 005°56'5 8.8
2018-Apr-22 00:48N 53°27' W 005°49'3 8.7
2018-Apr-22 00:30N 53°29' W 005°46'4 8.5
2018-Apr-22 00:00N 53°32' W 005°40'5 9.4
2018-Apr-21 23:30N 53°34' W 005°33'611.7
2018-Apr-21 23:00N 53°38' W 005°26'611.5
2018-Apr-21 22:30N 53°41' W 005°18'612.0
2018-Apr-21 22:00N 53°45' W 005°10'912.8
2018-Apr-21 21:20N 53°50' W 004°59'513.0
2018-Apr-21 20:59N 53°53' W 004°53'613.2
2018-Apr-21 20:30N 53°57' W 004°44'713.9
2018-Apr-21 20:00N 54°01' W 004°35'  
2018-Apr-18 15:57N 51°53' W 005°47'  
2018-Apr-15 19:02N 39°20' W 009°50'011.2
2018-Apr-15 19:00N 39°20' W 009°50'611.2
2018-Apr-15 18:30N 39°14' W 009°50'611.6
2018-Apr-15 18:00N 39°08' W 009°51'611.5
2018-Apr-15 17:31N 39°03' W 009°51'611.5
2018-Apr-15 17:00N 38°57' W 009°50'611.6
2018-Apr-15 16:30N 38°51' W 009°50'611.6
2018-Apr-15 16:00N 38°45' W 009°50'611.9
2018-Apr-15 15:30N 38°39' W 009°49'612.1
2018-Apr-15 15:00N 38°33' W 009°48'612.0
2018-Apr-15 14:30N 38°27' W 009°46'1012.0
2018-Apr-15 13:38N 38°17' W 009°43'211.9
2018-Apr-15 13:30N 38°16' W 009°43'712.1
2018-Apr-15 12:57N 38°09' W 009°41'2611.9
2018-Apr-15 10:44N 37°44' W 009°34'312.1
2018-Apr-15 10:28N 37°40' W 009°33'218 9.7
2018-Apr-14 12:02N 35°59' W 005°32'010.2
2018-Apr-14 12:00N 35°59' W 005°32'5 9.9
2018-Apr-14 11:30N 36°00' W 005°26'5 9.5
2018-Apr-14 11:00N 36°02' W 005°21'5 9.3
2018-Apr-14 10:30N 36°03' W 005°15'  
Track history (hours):
 
Tides and Currents Weather Stations Pressure Air Temp Water Temp Dewpoint Dewpoint Depression Visibility Wind Speed Wind Dir Waves Ship Positions

Morgenstond III

Last reported at 2018-Apr-23 06:15 UTC. Time now 2018-Apr-23 07:09 UTC.
Position N 53°21' W 006°13'.

Length 110 m; draft 3.9 m.

Type: Ship. MMSI: 244562000.

Date/timePositionNaut miles runAvg speedWind from/ knotsBaromVisibWave heightAir tempDewpointWater temp
2018-Apr-23 06:15N 53°21' W 006°13'0 0.0
2018-Apr-23 05:54N 53°21' W 006°13'0 0.0
2018-Apr-23 04:21N 53°21' W 006°13'0 0.0
2018-Apr-23 02:42N 53°21' W 006°13'0 0.0
2018-Apr-23 02:06N 53°21' W 006°13'0 0.0
2018-Apr-23 01:39N 53°21' W 006°13'0 0.0
2018-Apr-23 01:15N 53°21' W 006°13'0 0.0
2018-Apr-23 01:00N 53°21' W 006°13'0 0.0
2018-Apr-22 20:48N 53°21' W 006°13'0 0.0
2018-Apr-22 20:18N 53°21' W 006°13'0 0.0
2018-Apr-22 19:51N 53°21' W 006°13'0 0.0
2018-Apr-22 19:15N 53°21' W 006°13'0 0.0
2018-Apr-22 17:15N 53°21' W 006°13'0 0.0
2018-Apr-22 16:42N 53°21' W 006°13'0 0.0
2018-Apr-22 16:09N 53°21' W 006°13'0 0.0
2018-Apr-22 15:39N 53°21' W 006°13'0 0.0
2018-Apr-22 13:06N 53°21' W 006°13'0 0.0
2018-Apr-22 10:24N 53°21' W 006°13'0 0.0
2018-Apr-22 09:54N 53°21' W 006°13'0 0.0
2018-Apr-22 05:15N 53°21' W 006°13'0 0.0
2018-Apr-22 03:00N 53°21' W 006°13'1 2.2
2018-Apr-22 02:30N 53°21' W 006°11'6 9.6
2018-Apr-22 01:54N 53°21' W 006°02'4 9.1
2018-Apr-22 01:26N 53°24' W 005°56'5 8.8
2018-Apr-22 00:48N 53°27' W 005°49'3 8.7
2018-Apr-22 00:30N 53°29' W 005°46'4 8.5
2018-Apr-22 00:00N 53°32' W 005°40'5 9.4
2018-Apr-21 23:30N 53°34' W 005°33'611.7
2018-Apr-21 23:00N 53°38' W 005°26'611.5
2018-Apr-21 22:30N 53°41' W 005°18'612.0
2018-Apr-21 22:00N 53°45' W 005°10'912.8
2018-Apr-21 21:20N 53°50' W 004°59'513.0
2018-Apr-21 20:59N 53°53' W 004°53'613.2
2018-Apr-21 20:30N 53°57' W 004°44'713.9
2018-Apr-21 20:00N 54°01' W 004°35'  
2018-Apr-18 15:57N 51°53' W 005°47'  
2018-Apr-15 19:02N 39°20' W 009°50'011.2
2018-Apr-15 19:00N 39°20' W 009°50'611.2
2018-Apr-15 18:30N 39°14' W 009°50'611.6
2018-Apr-15 18:00N 39°08' W 009°51'611.5
2018-Apr-15 17:31N 39°03' W 009°51'611.5
2018-Apr-15 17:00N 38°57' W 009°50'611.6
2018-Apr-15 16:30N 38°51' W 009°50'611.6
2018-Apr-15 16:00N 38°45' W 009°50'611.9
2018-Apr-15 15:30N 38°39' W 009°49'612.1
2018-Apr-15 15:00N 38°33' W 009°48'612.0
2018-Apr-15 14:30N 38°27' W 009°46'1012.0
2018-Apr-15 13:38N 38°17' W 009°43'211.9
2018-Apr-15 13:30N 38°16' W 009°43'712.1
2018-Apr-15 12:57N 38°09' W 009°41'2611.9
2018-Apr-15 10:44N 37°44' W 009°34'312.1
2018-Apr-15 10:28N 37°40' W 009°33'218 9.7
2018-Apr-14 12:02N 35°59' W 005°32'010.2
2018-Apr-14 12:00N 35°59' W 005°32'5 9.9
2018-Apr-14 11:30N 36°00' W 005°26'5 9.5
2018-Apr-14 11:00N 36°02' W 005°21'5 9.3
2018-Apr-14 10:30N 36°03' W 005°15'  

Dump ship's entire track history